Time;durP1;ratioP1;P1;durP2;ratioP2;P2;SDS_P1;SDS_P2;PMS_P1;PMS_P2;Temp;Humidity;BMP_temperature;BMP_pressure;BME280_temperature;BME280_humidity;BME280_pressure;Samples;Min_cycle;Max_cycle;Signal;HPM_P1;HPM_P2
2021/10/17 00:01:50;;;;;;;35.27;33.00;;;10.30;99.90;;;;;;4348743;33;20213;-65
2021/10/17 00:04:17;;;;;;;34.40;32.00;;;10.30;99.90;;;;;;4349359;33;20177;-65
2021/10/17 00:06:44;;;;;;;35.77;33.60;;;10.40;99.90;;;;;;4348428;33;20187;-65
2021/10/17 00:09:11;;;;;;;36.03;33.50;;;10.40;99.90;;;;;;4347488;33;20461;-66
2021/10/17 00:11:39;;;;;;;34.47;32.17;;;10.50;99.90;;;;;;4362251;33;20156;-64
2021/10/17 00:14:06;;;;;;;31.03;29.13;;;10.50;99.90;;;;;;4362389;32;20519;-64
2021/10/17 00:16:33;;;;;;;31.97;29.63;;;10.40;99.90;;;;;;4349165;32;20525;-64
2021/10/17 00:18:59;;;;;;;29.63;27.43;;;10.50;99.90;;;;;;4347971;33;20509;-65
2021/10/17 00:21:26;;;;;;;30.73;28.43;;;10.50;99.90;;;;;;4361886;32;20141;-64
2021/10/17 00:23:53;;;;;;;29.53;27.50;;;10.50;99.90;;;;;;4363739;32;20218;-64
2021/10/17 00:26:20;;;;;;;27.87;26.07;;;10.50;99.90;;;;;;4359117;33;20171;-64
2021/10/17 00:28:48;;;;;;;26.63;24.77;;;10.50;99.90;;;;;;4362059;33;20154;-66
2021/10/17 00:31:15;;;;;;;29.93;27.60;;;10.40;99.90;;;;;;4362414;32;20228;-64
2021/10/17 00:33:42;;;;;;;31.73;29.57;;;10.40;99.90;;;;;;4362501;32;20213;-65
2021/10/17 00:36:09;;;;;;;31.40;29.13;;;10.40;99.90;;;;;;4362247;32;20195;-64
2021/10/17 00:38:36;;;;;;;29.23;27.30;;;10.40;99.90;;;;;;4362113;33;20149;-64
2021/10/17 00:41:03;;;;;;;31.23;28.97;;;10.30;99.90;;;;;;4361310;32;20172;-65
2021/10/17 00:43:29;;;;;;;33.87;31.77;;;10.30;99.90;;;;;;4361791;33;20152;-64
2021/10/17 00:45:58;;;;;;;36.30;33.90;;;10.30;99.90;;;;;;4361606;32;20558;-64
2021/10/17 00:48:24;;;;;;;33.07;30.80;;;10.30;99.90;;;;;;4362988;32;20149;-64
2021/10/17 00:50:51;;;;;;;33.53;30.80;;;10.30;99.90;;;;;;4362905;32;20473;-64
2021/10/17 00:53:20;;;;;;;27.83;26.03;;;10.30;99.90;;;;;;4361619;32;20152;-66
2021/10/17 00:55:48;;;;;;;31.33;29.17;;;10.30;99.90;;;;;;4361905;32;20149;-64
2021/10/17 00:58:17;;;;;;;34.20;31.57;;;10.30;99.90;;;;;;4361382;32;20489;-66
2021/10/17 01:00:43;;;;;;;34.23;31.93;;;10.20;99.90;;;;;;4361085;33;20180;-65
2021/10/17 01:03:13;;;;;;;37.23;34.97;;;10.20;99.90;;;;;;4361468;32;20137;-65
2021/10/17 01:05:41;;;;;;;33.77;31.60;;;10.20;99.90;;;;;;4361963;32;20561;-64
2021/10/17 01:08:08;;;;;;;35.97;33.43;;;10.20;99.90;;;;;;4363191;32;20134;-65
2021/10/17 01:10:35;;;;;;;32.20;30.13;;;10.10;99.90;;;;;;4361160;32;20163;-64
2021/10/17 01:13:02;;;;;;;28.87;26.67;;;10.20;99.90;;;;;;4361314;33;20167;-65
2021/10/17 01:15:29;;;;;;;33.53;31.17;;;10.20;99.90;;;;;;4361151;33;20163;-66
2021/10/17 01:17:55;;;;;;;32.93;30.50;;;10.10;99.90;;;;;;4361856;32;20137;-64
2021/10/17 01:20:24;;;;;;;34.33;32.13;;;10.10;99.90;;;;;;4360834;33;20149;-64
2021/10/17 01:22:51;;;;;;;34.03;31.13;;;10.00;99.90;;;;;;4361551;32;20484;-65
2021/10/17 01:25:18;;;;;;;33.43;30.97;;;10.00;99.90;;;;;;4361667;32;20594;-65
2021/10/17 01:27:45;;;;;;;33.67;31.27;;;10.00;99.90;;;;;;4359837;33;20145;-66
2021/10/17 01:30:17;;;;;;;32.00;30.00;;;9.90;99.90;;;;;;4348410;32;20181;-65
2021/10/17 01:32:44;;;;;;;34.50;32.37;;;9.90;99.90;;;;;;4348327;32;20181;-64
2021/10/17 01:35:12;;;;;;;35.13;32.43;;;9.90;99.90;;;;;;4347183;33;20175;-64
2021/10/17 01:37:40;;;;;;;35.10;32.40;;;9.90;99.90;;;;;;4346650;33;20164;-64
2021/10/17 01:40:08;;;;;;;32.83;30.30;;;9.80;99.90;;;;;;4362669;32;20149;-64
2021/10/17 01:42:35;;;;;;;35.00;32.43;;;9.80;99.90;;;;;;4360568;33;20184;-64
2021/10/17 01:45:01;;;;;;;33.53;31.23;;;9.80;99.90;;;;;;4346573;32;20164;-64
2021/10/17 01:47:28;;;;;;;30.73;28.73;;;9.80;99.90;;;;;;4347637;32;20168;-64
2021/10/17 01:49:56;;;;;;;33.67;31.70;;;9.70;99.90;;;;;;4359465;32;20175;-66
2021/10/17 01:52:23;;;;;;;33.47;30.80;;;9.70;99.90;;;;;;4356982;33;20165;-65
2021/10/17 01:54:51;;;;;;;37.00;34.40;;;9.60;99.90;;;;;;4346041;33;20143;-64
2021/10/17 01:57:18;;;;;;;34.93;32.53;;;9.60;99.90;;;;;;4350958;33;20145;-64
2021/10/17 01:59:45;;;;;;;36.37;34.07;;;9.50;99.90;;;;;;4360774;33;20187;-65
2021/10/17 02:02:12;;;;;;;37.33;34.77;;;9.50;99.90;;;;;;4356481;33;20148;-64
2021/10/17 02:04:39;;;;;;;36.53;33.33;;;9.50;99.90;;;;;;4347477;33;20545;-64
2021/10/17 02:07:06;;;;;;;34.10;31.80;;;9.50;99.90;;;;;;4350348;32;20149;-64
2021/10/17 02:09:33;;;;;;;36.63;34.23;;;9.50;99.90;;;;;;4362259;32;20457;-64
2021/10/17 02:12:01;;;;;;;43.20;40.50;;;9.50;99.90;;;;;;4359793;32;20148;-64
2021/10/17 02:14:28;;;;;;;35.20;32.77;;;9.60;99.90;;;;;;4346119;33;20164;-64
2021/10/17 02:16:54;;;;;;;37.60;35.10;;;9.60;99.90;;;;;;4346574;33;20187;-64
2021/10/17 02:19:21;;;;;;;36.23;34.03;;;9.60;99.90;;;;;;4360545;33;20155;-64
2021/10/17 02:21:49;;;;;;;38.77;36.03;;;9.60;99.90;;;;;;4360921;32;20467;-64
2021/10/17 02:24:16;;;;;;;34.23;31.63;;;9.60;99.90;;;;;;4346281;33;20579;-64
2021/10/17 02:26:43;;;;;;;30.10;28.27;;;9.60;99.90;;;;;;4358294;33;20220;-64
2021/10/17 02:29:12;;;;;;;31.57;28.20;;;9.60;99.90;;;;;;4362008;32;20564;-64
2021/10/17 02:31:39;;;;;;;30.73;28.73;;;9.60;99.90;;;;;;4360415;33;20211;-66
2021/10/17 02:34:06;;;;;;;38.33;35.10;;;9.50;99.90;;;;;;4360635;33;20472;-64
2021/10/17 02:36:33;;;;;;;38.60;35.73;;;9.50;99.90;;;;;;4360385;33;20160;-66
2021/10/17 02:39:00;;;;;;;35.60;33.37;;;9.50;99.90;;;;;;4361733;33;20161;-65
2021/10/17 02:41:27;;;;;;;39.27;36.50;;;9.40;99.90;;;;;;4362003;33;20210;-65
2021/10/17 02:43:55;;;;;;;37.80;35.03;;;9.50;99.90;;;;;;4360285;33;20148;-63
2021/10/17 02:46:24;;;;;;;37.13;34.20;;;9.40;99.90;;;;;;4360717;32;20289;-64
2021/10/17 02:48:51;;;;;;;38.80;36.27;;;9.40;99.90;;;;;;4361262;33;20152;-64
2021/10/17 02:51:18;;;;;;;38.30;36.00;;;9.30;99.90;;;;;;4360346;33;20163;-64
2021/10/17 02:53:45;;;;;;;39.27;36.83;;;9.30;99.90;;;;;;4360229;33;20608;-64
2021/10/17 02:56:12;;;;;;;34.50;32.33;;;9.20;99.90;;;;;;4361962;33;20477;-64
2021/10/17 02:58:39;;;;;;;34.97;32.13;;;9.30;99.90;;;;;;4359557;33;20237;-65
2021/10/17 03:01:06;;;;;;;39.13;36.07;;;9.20;99.90;;;;;;4360221;33;20170;-64
2021/10/17 03:03:35;;;;;;;36.33;33.80;;;9.10;99.90;;;;;;4361965;33;20207;-64
2021/10/17 03:06:02;;;;;;;39.37;36.70;;;9.10;99.90;;;;;;4360628;33;20232;-64
2021/10/17 03:08:29;;;;;;;41.17;38.57;;;9.00;99.90;;;;;;4360637;33;20628;-64
2021/10/17 03:10:56;;;;;;;39.83;37.00;;;8.90;99.90;;;;;;4361358;33;20188;-64
2021/10/17 03:13:23;;;;;;;43.23;40.43;;;8.90;99.90;;;;;;4361880;33;20558;-64
2021/10/17 03:15:49;;;;;;;38.07;35.43;;;8.90;99.90;;;;;;4346469;33;20186;-64
2021/10/17 03:18:16;;;;;;;42.00;38.77;;;8.80;99.90;;;;;;4361277;33;20158;-64
2021/10/17 03:20:44;;;;;;;42.20;38.87;;;8.80;99.90;;;;;;4360770;33;20151;-64
2021/10/17 03:23:14;;;;;;;45.30;42.60;;;8.80;99.90;;;;;;4360661;33;20155;-65
2021/10/17 03:25:41;;;;;;;48.57;45.87;;;8.70;99.90;;;;;;4356847;33;20500;-65
2021/10/17 03:28:08;;;;;;;52.33;48.70;;;8.70;99.90;;;;;;4348838;32;20145;-65
2021/10/17 03:30:35;;;;;;;49.57;46.53;;;8.70;99.90;;;;;;4351030;33;20149;-66
2021/10/17 03:33:02;;;;;;;55.60;52.10;;;8.80;99.90;;;;;;4363900;32;20160;-64
2021/10/17 03:35:28;;;;;;;48.00;45.00;;;8.80;99.90;;;;;;4361353;33;20167;-64
2021/10/17 03:37:57;;;;;;;54.13;50.67;;;8.90;99.90;;;;;;4348949;33;20176;-65
2021/10/17 03:40:23;;;;;;;48.10;45.23;;;8.80;99.90;;;;;;4348693;33;20139;-66
2021/10/17 03:42:50;;;;;;;46.40;43.57;;;8.90;99.90;;;;;;4362801;33;20155;-65
2021/10/17 03:45:17;;;;;;;48.67;45.60;;;8.90;99.90;;;;;;4364233;32;20156;-64
2021/10/17 03:47:44;;;;;;;47.87;45.07;;;8.90;99.90;;;;;;4349619;32;20163;-65
2021/10/17 03:50:12;;;;;;;51.07;47.83;;;9.00;99.90;;;;;;4350535;33;20575;-64
2021/10/17 03:52:38;;;;;;;49.63;46.63;;;9.00;99.90;;;;;;4361566;32;20141;-64
2021/10/17 03:55:07;;;;;;;51.20;47.93;;;9.10;99.90;;;;;;4350320;33;20259;-64
2021/10/17 03:57:34;;;;;;;47.57;44.60;;;9.20;99.90;;;;;;4347551;33;20137;-66
2021/10/17 04:00:02;;;;;;;55.23;51.77;;;9.30;99.90;;;;;;4361534;32;20442;-64
2021/10/17 04:02:29;;;;;;;50.60;47.43;;;9.30;99.90;;;;;;4362584;33;20125;-64
2021/10/17 04:04:55;;;;;;;45.80;42.80;;;9.40;99.90;;;;;;4361609;32;20188;-64
2021/10/17 04:07:22;;;;;;;46.37;43.47;;;9.50;99.90;;;;;;4363262;32;20549;-65
2021/10/17 04:09:49;;;;;;;45.73;42.73;;;9.50;99.90;;;;;;4355111;32;20141;-64
2021/10/17 04:12:17;;;;;;;41.60;38.87;;;9.50;99.90;;;;;;4347596;33;20204;-64
2021/10/17 04:14:44;;;;;;;47.33;43.83;;;9.60;99.90;;;;;;4355287;33;20564;-64
2021/10/17 04:17:11;;;;;;;40.70;37.93;;;9.60;99.90;;;;;;4363573;32;20157;-64
2021/10/17 04:19:38;;;;;;;37.27;34.60;;;9.70;99.90;;;;;;4351674;33;20183;-64
2021/10/17 04:22:05;;;;;;;41.00;38.27;;;9.70;99.90;;;;;;4348983;33;20461;-64
2021/10/17 04:24:33;;;;;;;40.17;37.37;;;9.70;99.90;;;;;;4359826;32;20483;-64
2021/10/17 04:27:02;;;;;;;39.73;37.07;;;9.70;99.90;;;;;;4359175;32;20578;-64
2021/10/17 04:29:30;;;;;;;40.03;37.43;;;9.80;99.90;;;;;;4352909;32;20199;-64
2021/10/17 04:31:56;;;;;;;42.03;39.43;;;9.80;99.90;;;;;;4347492;33;20204;-64
2021/10/17 04:34:23;;;;;;;42.33;39.73;;;9.80;99.90;;;;;;4354663;33;20175;-64
2021/10/17 04:36:50;;;;;;;37.80;34.67;;;9.80;99.90;;;;;;4363783;32;20176;-65
2021/10/17 04:39:18;;;;;;;39.10;36.73;;;9.90;99.90;;;;;;4360771;32;20234;-65
2021/10/17 04:41:46;;;;;;;33.43;30.90;;;9.90;99.90;;;;;;4362441;32;20160;-64
2021/10/17 04:44:13;;;;;;;39.37;36.27;;;9.90;99.90;;;;;;4354005;32;20146;-64
2021/10/17 04:46:41;;;;;;;36.40;33.27;;;9.90;99.90;;;;;;4347571;33;20220;-66
2021/10/17 04:49:08;;;;;;;35.57;33.13;;;10.00;99.90;;;;;;4355534;33;20221;-64
2021/10/17 04:51:35;;;;;;;35.83;33.40;;;9.90;99.90;;;;;;4363449;32;20138;-65
2021/10/17 04:54:02;;;;;;;35.17;32.60;;;10.00;99.90;;;;;;4354710;32;20179;-66
2021/10/17 04:56:28;;;;;;;41.83;39.17;;;9.90;99.90;;;;;;4357811;33;20166;-64
2021/10/17 04:58:55;;;;;;;40.57;38.07;;;9.90;99.90;;;;;;4360782;32;20141;-64
2021/10/17 05:01:22;;;;;;;40.43;37.93;;;9.90;99.90;;;;;;4361954;32;20150;-64
2021/10/17 05:03:50;;;;;;;41.63;38.27;;;10.00;99.90;;;;;;4360063;32;20215;-63
2021/10/17 05:06:17;;;;;;;44.37;41.53;;;10.00;99.90;;;;;;4361435;33;20634;-64
2021/10/17 05:08:44;;;;;;;37.30;34.53;;;10.00;99.90;;;;;;4362507;32;20152;-65
2021/10/17 05:11:11;;;;;;;35.77;33.63;;;10.00;99.90;;;;;;4361454;33;20132;-64
2021/10/17 05:13:38;;;;;;;44.27;40.93;;;10.00;99.90;;;;;;4361427;32;20596;-65
2021/10/17 05:16:05;;;;;;;41.57;38.07;;;10.00;99.90;;;;;;4363150;32;20139;-64
2021/10/17 05:18:32;;;;;;;36.83;34.30;;;10.00;99.90;;;;;;4355679;33;20228;-64
2021/10/17 05:21:00;;;;;;;38.30;35.77;;;10.00;99.90;;;;;;4347312;33;20137;-64
2021/10/17 05:23:27;;;;;;;32.27;29.60;;;10.00;99.90;;;;;;4347211;33;20159;-64
2021/10/17 05:25:55;;;;;;;32.00;29.40;;;10.00;99.90;;;;;;4354358;33;20490;-66
2021/10/17 05:28:21;;;;;;;31.67;29.57;;;10.00;99.90;;;;;;4362840;32;20144;-65
2021/10/17 05:30:48;;;;;;;36.27;33.27;;;10.00;99.90;;;;;;4361154;33;20164;-64
2021/10/17 05:33:15;;;;;;;37.03;34.70;;;9.90;99.90;;;;;;4362143;32;20150;-65
2021/10/17 05:35:42;;;;;;;37.43;35.03;;;9.90;99.90;;;;;;4361805;32;20584;-64
2021/10/17 05:38:10;;;;;;;36.67;34.07;;;9.90;99.90;;;;;;4361903;32;20603;-64
2021/10/17 05:40:37;;;;;;;37.10;34.47;;;9.90;99.90;;;;;;4361974;32;20223;-64
2021/10/17 05:43:04;;;;;;;33.10;30.77;;;10.00;99.90;;;;;;4360555;33;20149;-64
2021/10/17 05:45:31;;;;;;;33.63;31.17;;;10.00;99.90;;;;;;4361106;33;20137;-64
2021/10/17 05:47:57;;;;;;;34.67;32.00;;;9.90;99.90;;;;;;4360628;33;20196;-63
2021/10/17 05:50:24;;;;;;;36.70;34.00;;;9.90;99.90;;;;;;4360875;32;20554;-64
2021/10/17 05:52:51;;;;;;;37.23;34.53;;;9.90;99.90;;;;;;4360480;32;20242;-64
2021/10/17 05:55:19;;;;;;;35.97;33.03;;;9.90;99.90;;;;;;4360756;33;20171;-64
2021/10/17 05:57:46;;;;;;;43.40;40.50;;;9.90;99.90;;;;;;4360389;33;20173;-64
2021/10/17 06:00:16;;;;;;;38.73;36.10;;;9.80;99.90;;;;;;4360280;32;20175;-64
2021/10/17 06:02:43;;;;;;;39.97;36.70;;;9.90;99.90;;;;;;4362229;32;20178;-65
2021/10/17 06:05:10;;;;;;;38.83;35.17;;;9.90;99.90;;;;;;4362444;32;20137;-66
2021/10/17 06:07:36;;;;;;;35.53;32.93;;;10.00;99.90;;;;;;4361917;32;20137;-64
2021/10/17 06:10:07;;;;;;;36.60;34.00;;;9.90;99.90;;;;;;4362472;32;20155;-63
2021/10/17 06:12:36;;;;;;;38.10;35.07;;;9.90;99.90;;;;;;4360258;33;20129;-64
2021/10/17 06:15:03;;;;;;;37.40;34.77;;;9.90;99.90;;;;;;4362388;32;20133;-66
2021/10/17 06:17:30;;;;;;;35.53;33.10;;;9.90;99.90;;;;;;4360439;33;20193;-65
2021/10/17 06:19:57;;;;;;;36.07;33.50;;;9.90;99.90;;;;;;4359977;32;20489;-64
2021/10/17 06:22:23;;;;;;;34.33;31.70;;;10.00;99.90;;;;;;4362166;32;20167;-64
2021/10/17 06:25:25;;;;;;;33.63;31.47;;;10.00;99.90;;;;;;4348392;33;20173;-65
2021/10/17 06:27:55;;;;;;;33.53;30.83;;;10.00;99.90;;;;;;4353723;32;20216;-64
2021/10/17 06:30:22;;;;;;;36.67;33.57;;;10.00;99.90;;;;;;4354616;32;20141;-63
2021/10/17 06:32:49;;;;;;;31.87;29.80;;;10.10;99.90;;;;;;4359891;32;20152;-63
2021/10/17 06:35:16;;;;;;;36.57;33.87;;;10.10;99.90;;;;;;4356288;32;20167;-63
2021/10/17 06:37:43;;;;;;;37.63;34.53;;;10.10;99.90;;;;;;4362298;32;20216;-63
2021/10/17 06:40:11;;;;;;;34.30;32.00;;;10.00;99.90;;;;;;4365752;32;20174;-63
2021/10/17 06:42:38;;;;;;;36.30;33.50;;;10.00;99.90;;;;;;4367612;32;20276;-63
2021/10/17 06:45:06;;;;;;;36.20;33.60;;;10.10;99.90;;;;;;4365978;32;20180;-64
2021/10/17 06:47:33;;;;;;;34.93;32.50;;;10.10;99.90;;;;;;4371501;32;20160;-63
2021/10/17 06:50:00;;;;;;;37.40;34.77;;;10.10;99.90;;;;;;4367766;32;20496;-63
2021/10/17 06:52:27;;;;;;;37.17;34.90;;;10.10;99.90;;;;;;4359284;32;20660;-64
2021/10/17 06:54:56;;;;;;;38.60;35.20;;;10.10;99.90;;;;;;4359352;32;20169;-64
2021/10/17 06:57:23;;;;;;;38.07;35.40;;;10.10;99.90;;;;;;4360435;32;20748;-64
2021/10/17 06:59:50;;;;;;;38.73;35.80;;;10.20;99.90;;;;;;4360348;32;20575;-63
2021/10/17 07:02:18;;;;;;;34.90;32.60;;;10.20;99.90;;;;;;4361893;32;20170;-63
2021/10/17 07:04:45;;;;;;;37.07;34.77;;;10.30;99.90;;;;;;4363053;32;20223;-64
2021/10/17 07:07:11;;;;;;;33.97;30.93;;;10.30;99.90;;;;;;4364841;32;20154;-63
2021/10/17 07:09:38;;;;;;;33.17;30.77;;;10.40;99.90;;;;;;4365823;32;20316;-63
2021/10/17 07:12:06;;;;;;;37.27;34.37;;;10.60;99.90;;;;;;4364948;32;20227;-63
2021/10/17 07:14:32;;;;;;;34.57;32.03;;;10.50;99.90;;;;;;4359266;32;20161;-63
2021/10/17 07:16:59;;;;;;;36.90;34.47;;;10.50;99.90;;;;;;4362583;32;20196;-64
2021/10/17 07:19:27;;;;;;;36.57;34.20;;;10.70;99.90;;;;;;4363819;32;20148;-64
2021/10/17 07:21:54;;;;;;;35.17;32.73;;;10.80;99.90;;;;;;4362348;32;20161;-64
2021/10/17 07:24:21;;;;;;;36.70;34.03;;;10.90;99.90;;;;;;4362936;32;20682;-64
2021/10/17 07:26:48;;;;;;;33.43;30.90;;;10.90;99.90;;;;;;4364026;32;20618;-64
2021/10/17 07:29:15;;;;;;;32.07;29.33;;;11.00;99.90;;;;;;4363888;32;20175;-64
2021/10/17 07:31:41;;;;;;;34.50;31.97;;;11.10;99.90;;;;;;4369229;32;20182;-63
2021/10/17 07:34:08;;;;;;;32.07;29.93;;;11.20;99.90;;;;;;4369900;32;20149;-64
2021/10/17 07:36:36;;;;;;;34.77;32.10;;;11.20;99.90;;;;;;4371533;32;20298;-63
2021/10/17 07:39:04;;;;;;;34.47;32.13;;;11.20;99.90;;;;;;4367053;32;20176;-64
2021/10/17 07:41:37;;;;;;;33.83;31.17;;;11.20;99.90;;;;;;4368875;32;20483;-64
2021/10/17 07:44:04;;;;;;;34.27;31.40;;;11.10;99.90;;;;;;4363299;32;20143;-63
2021/10/17 07:46:31;;;;;;;34.00;31.47;;;11.10;99.90;;;;;;4370859;32;20180;-64
2021/10/17 07:48:58;;;;;;;33.90;31.10;;;11.10;99.90;;;;;;4368120;32;20517;-64
2021/10/17 07:51:27;;;;;;;35.07;32.07;;;11.20;99.90;;;;;;4365460;32;20198;-64
2021/10/17 07:54:04;;;;;;;33.17;30.87;;;11.20;99.90;;;;;;4370192;32;20187;-63
2021/10/17 07:56:31;;;;;;;38.77;35.80;;;11.20;99.90;;;;;;4366506;32;20152;-64
2021/10/17 07:59:01;;;;;;;38.07;35.13;;;11.20;99.90;;;;;;4368424;32;20228;-64
2021/10/17 08:01:28;;;;;;;37.17;34.57;;;11.10;99.90;;;;;;4365892;32;20156;-63
2021/10/17 08:03:55;;;;;;;34.60;32.13;;;11.10;99.90;;;;;;4368746;32;20167;-63
2021/10/17 08:06:22;;;;;;;35.03;32.60;;;11.10;99.90;;;;;;4365311;32;20144;-64
2021/10/17 08:08:49;;;;;;;36.00;33.13;;;11.10;99.90;;;;;;4359061;32;20152;-63
2021/10/17 08:11:17;;;;;;;37.33;34.83;;;11.10;99.90;;;;;;4358929;32;20650;-64
2021/10/17 08:13:44;;;;;;;36.17;33.07;;;11.20;99.90;;;;;;4353768;33;20149;-63
2021/10/17 08:16:11;;;;;;;38.67;35.80;;;11.30;99.90;;;;;;4363833;32;20203;-64
2021/10/17 08:18:38;;;;;;;40.40;37.50;;;11.30;99.90;;;;;;4362077;32;20136;-63
2021/10/17 08:21:05;;;;;;;37.13;34.70;;;11.40;99.90;;;;;;4362184;33;20179;-64
2021/10/17 08:23:33;;;;;;;36.40;33.43;;;11.50;99.90;;;;;;4362657;32;20175;-64
2021/10/17 08:26:00;;;;;;;37.50;34.23;;;11.60;99.90;;;;;;4368701;32;20634;-64
2021/10/17 08:28:29;;;;;;;36.33;33.87;;;11.80;99.90;;;;;;4369297;32;20167;-64
2021/10/17 08:30:58;;;;;;;34.97;32.87;;;11.90;99.90;;;;;;4365607;32;20426;-64
2021/10/17 08:33:28;;;;;;;34.23;31.63;;;11.90;99.90;;;;;;4369646;32;20195;-63
2021/10/17 08:35:57;;;;;;;32.90;30.03;;;12.10;99.90;;;;;;4363851;32;20145;-63
2021/10/17 08:38:24;;;;;;;31.50;29.13;;;12.20;99.90;;;;;;4368309;32;20148;-63
2021/10/17 08:40:53;;;;;;;33.40;31.00;;;12.20;99.90;;;;;;4367241;32;20152;-64
2021/10/17 08:43:22;;;;;;;33.97;31.33;;;12.30;99.90;;;;;;4363025;32;20145;-64
2021/10/17 08:45:53;;;;;;;28.30;25.77;;;12.40;99.90;;;;;;4362458;32;20144;-64
2021/10/17 08:48:30;;;;;;;31.40;28.67;;;12.30;99.90;;;;;;4362552;32;20137;-63
2021/10/17 08:51:02;;;;;;;30.90;28.67;;;12.20;99.90;;;;;;4357142;32;20648;-64
2021/10/17 08:53:29;;;;;;;29.50;27.37;;;12.20;99.90;;;;;;4355437;32;20200;-63
2021/10/17 08:55:59;;;;;;;28.33;26.10;;;12.20;99.90;;;;;;4357306;32;20145;-64
2021/10/17 08:58:33;;;;;;;29.87;27.70;;;12.30;99.90;;;;;;4357013;32;20186;-63
2021/10/17 09:01:12;;;;;;;31.90;29.37;;;12.30;99.90;;;;;;4359902;33;20145;-64
2021/10/17 09:03:42;;;;;;;32.67;29.20;;;12.40;99.90;;;;;;4357547;32;20156;-63
2021/10/17 09:06:17;;;;;;;27.13;25.17;;;12.50;99.90;;;;;;4356164;32;20146;-64
2021/10/17 09:08:47;;;;;;;29.77;27.47;;;12.40;99.90;;;;;;4354274;32;20588;-64
2021/10/17 09:11:37;;;;;;;30.13;27.20;;;12.30;99.90;;;;;;4360528;32;20141;-64
2021/10/17 09:14:06;;;;;;;31.67;28.93;;;12.30;99.90;;;;;;4352595;32;20148;-64
2021/10/17 09:16:37;;;;;;;31.50;28.97;;;12.20;99.90;;;;;;4358500;32;20179;-64
2021/10/17 09:19:12;;;;;;;33.57;31.17;;;12.20;99.90;;;;;;4365129;32;20274;-64
2021/10/17 09:21:57;;;;;;;31.67;29.33;;;12.10;99.90;;;;;;4362643;32;20474;-64
2021/10/17 09:24:26;;;;;;;35.23;32.13;;;12.10;99.90;;;;;;4358480;32;20191;-64
2021/10/17 09:27:07;;;;;;;33.43;30.60;;;12.10;99.90;;;;;;4346083;33;20172;-64
2021/10/17 09:29:36;;;;;;;36.87;33.90;;;12.20;99.90;;;;;;4346996;33;20149;-64
2021/10/17 09:32:15;;;;;;;33.07;30.83;;;12.40;99.90;;;;;;4356042;32;20133;-64
2021/10/17 09:34:56;;;;;;;31.70;29.40;;;12.60;99.90;;;;;;4354508;32;20168;-64
2021/10/17 09:37:31;;;;;;;36.23;33.60;;;12.70;99.90;;;;;;4347631;33;20482;-64
2021/10/17 09:40:08;;;;;;;34.13;31.57;;;12.80;99.90;;;;;;4359880;32;20170;-64
2021/10/17 09:42:40;;;;;;;30.23;27.23;;;12.80;99.90;;;;;;4360864;33;20141;-64
2021/10/17 09:45:21;;;;;;;30.20;28.00;;;12.90;99.90;;;;;;4362677;32;20506;-64
2021/10/17 09:47:49;;;;;;;29.13;26.97;;;12.90;99.90;;;;;;4360970;32;20140;-64
2021/10/17 09:50:17;;;;;;;29.00;26.70;;;13.10;99.90;;;;;;4362278;32;20167;-64
2021/10/17 09:53:01;;;;;;;29.47;26.97;;;13.50;99.90;;;;;;4357540;32;20231;-64
2021/10/17 09:55:29;;;;;;;31.03;28.10;;;14.00;99.90;;;;;;4353795;32;20149;-65
2021/10/17 09:57:56;;;;;;;29.97;27.73;;;14.30;99.90;;;;;;4361355;32;20133;-64
2021/10/17 10:00:23;;;;;;;26.20;23.80;;;14.40;99.90;;;;;;4361505;32;20152;-64
2021/10/17 10:02:53;;;;;;;25.87;23.83;;;14.40;99.90;;;;;;4361767;32;20187;-64
2021/10/17 10:05:24;;;;;;;30.27;27.77;;;14.40;99.90;;;;;;4361525;32;20167;-64
2021/10/17 10:07:53;;;;;;;28.27;25.67;;;14.50;99.90;;;;;;4360411;33;20454;-64
2021/10/17 10:10:21;;;;;;;29.33;26.90;;;14.30;99.90;;;;;;4360372;33;20145;-64
2021/10/17 10:12:49;;;;;;;30.50;28.13;;;14.20;99.90;;;;;;4362186;32;20175;-64
2021/10/17 10:15:16;;;;;;;29.83;27.30;;;14.10;99.90;;;;;;4356537;33;20172;-64
2021/10/17 10:17:43;;;;;;;29.00;26.53;;;14.10;99.90;;;;;;4355229;33;20153;-64
2021/10/17 10:20:13;;;;;;;27.47;25.33;;;14.20;99.90;;;;;;4354983;33;20490;-64
2021/10/17 10:22:40;;;;;;;29.67;26.87;;;14.30;99.90;;;;;;4358888;32;20171;-64
2021/10/17 10:25:10;;;;;;;28.67;26.37;;;14.40;99.90;;;;;;4353871;32;20209;-64
2021/10/17 10:27:38;;;;;;;28.00;25.80;;;14.50;99.90;;;;;;4351624;33;20187;-64
2021/10/17 10:30:24;;;;;;;28.37;26.07;;;14.60;99.90;;;;;;4359755;32;20601;-64
2021/10/17 10:33:13;;;;;;;30.73;28.20;;;14.80;99.90;;;;;;4354923;32;20141;-64
2021/10/17 10:36:02;;;;;;;28.20;25.40;;;15.00;99.90;;;;;;4352742;32;20164;-64
2021/10/17 10:39:16;;;;;;;27.43;25.20;;;15.20;99.90;;;;;;4351257;33;20167;-64
2021/10/17 10:41:54;;;;;;;28.53;26.43;;;15.30;99.90;;;;;;4357312;32;20648;-64
2021/10/17 10:44:24;;;;;;;28.23;25.83;;;15.50;99.90;;;;;;4357112;32;20222;-64
2021/10/17 10:46:52;;;;;;;29.80;27.33;;;15.70;99.90;;;;;;4352913;33;20165;-64
2021/10/17 10:49:39;;;;;;;24.67;22.80;;;15.60;99.90;;;;;;4361823;33;20211;-64
2021/10/17 10:52:11;;;;;;;25.60;23.40;;;15.30;99.90;;;;;;4346811;33;20171;-64
2021/10/17 10:54:38;;;;;;;25.27;23.20;;;15.00;99.90;;;;;;4359463;33;20604;-64
2021/10/17 10:57:20;;;;;;;24.63;22.73;;;15.00;99.90;;;;;;4355407;33;20537;-64
2021/10/17 11:00:12;;;;;;;23.63;21.77;;;14.90;99.90;;;;;;4352884;33;20218;-64
2021/10/17 11:03:00;;;;;;;23.13;21.17;;;14.90;99.90;;;;;;4353455;33;20513;-64
2021/10/17 11:05:28;;;;;;;25.97;23.70;;;14.90;99.90;;;;;;4355439;33;20235;-64
2021/10/17 11:08:12;;;;;;;23.97;21.50;;;14.60;99.90;;;;;;4352752;33;20588;-64
2021/10/17 11:10:39;;;;;;;24.63;22.83;;;14.80;99.90;;;;;;4354323;33;20142;-64
2021/10/17 11:13:08;;;;;;;25.23;23.27;;;15.00;99.90;;;;;;4354025;33;20566;-65
2021/10/17 11:15:36;;;;;;;24.20;22.17;;;15.40;99.90;;;;;;4361397;32;20611;-64
2021/10/17 11:18:05;;;;;;;25.20;23.30;;;15.80;99.90;;;;;;4352846;33;20590;-64
2021/10/17 11:20:35;;;;;;;24.50;22.50;;;15.80;99.90;;;;;;4355296;32;20216;-64
2021/10/17 11:23:04;;;;;;;24.43;22.57;;;15.60;99.90;;;;;;4361206;32;20159;-64
2021/10/17 11:25:31;;;;;;;22.67;21.07;;;15.60;99.90;;;;;;4367253;32;20617;-64
2021/10/17 11:27:58;;;;;;;22.30;20.67;;;15.50;99.90;;;;;;4368424;32;20156;-64
2021/10/17 11:30:27;;;;;;;19.97;18.37;;;15.40;99.90;;;;;;4368417;32;20705;-64
2021/10/17 11:32:55;;;;;;;21.57;20.07;;;15.40;99.90;;;;;;4362232;32;20175;-64
2021/10/17 11:35:30;;;;;;;22.90;20.73;;;15.40;99.90;;;;;;4362213;32;20169;-64
2021/10/17 11:37:59;;;;;;;19.47;17.97;;;15.40;99.90;;;;;;4359734;33;20179;-64
2021/10/17 11:40:28;;;;;;;21.20;19.43;;;15.40;99.90;;;;;;4360635;33;20629;-64
2021/10/17 11:42:57;;;;;;;20.80;19.20;;;15.50;99.90;;;;;;4360561;33;20159;-64
2021/10/17 11:45:27;;;;;;;22.43;21.00;;;15.60;99.90;;;;;;4360079;33;20137;-64
2021/10/17 11:47:55;;;;;;;20.33;18.83;;;15.90;99.90;;;;;;4359789;32;20166;-64
2021/10/17 11:50:23;;;;;;;20.83;19.43;;;15.80;99.90;;;;;;4364393;32;20466;-64
2021/10/17 11:52:56;;;;;;;20.40;18.67;;;15.80;99.90;;;;;;4362348;33;20167;-64
2021/10/17 11:55:36;;;;;;;20.27;18.60;;;15.80;99.90;;;;;;4362502;33;20206;-64
2021/10/17 11:58:04;;;;;;;19.50;17.97;;;15.80;99.90;;;;;;4347529;32;20220;-65
2021/10/17 12:00:33;;;;;;;20.43;18.87;;;15.70;99.90;;;;;;4349873;33;20145;-66
2021/10/17 12:03:01;;;;;;;18.47;16.93;;;15.80;99.90;;;;;;4351660;33;20295;-64
2021/10/17 12:05:29;;;;;;;19.23;17.73;;;15.70;99.90;;;;;;4351706;32;20152;-67
2021/10/17 12:07:58;;;;;;;20.33;18.50;;;15.70;99.90;;;;;;4362809;32;20517;-67
2021/10/17 12:10:27;;;;;;;19.17;17.93;;;15.60;99.90;;;;;;4350955;32;20145;-66
2021/10/17 12:13:00;;;;;;;20.73;19.30;;;15.60;99.90;;;;;;4359637;32;20150;-67
2021/10/17 12:15:28;;;;;;;21.87;20.43;;;15.60;99.90;;;;;;4352230;33;20280;-67
2021/10/17 12:18:00;;;;;;;20.70;19.10;;;15.60;99.90;;;;;;4362972;32;20142;-67
2021/10/17 12:20:29;;;;;;;23.13;21.57;;;15.70;99.90;;;;;;4363796;32;20241;-66
2021/10/17 12:22:56;;;;;;;24.80;23.13;;;15.60;99.90;;;;;;4361994;33;20198;-66
2021/10/17 12:25:23;;;;;;;23.40;21.70;;;15.50;99.90;;;;;;4362933;32;20263;-67
2021/10/17 12:27:50;;;;;;;22.23;20.67;;;15.50;99.90;;;;;;4361591;32;20179;-66
2021/10/17 12:30:24;;;;;;;24.23;22.27;;;15.50;99.90;;;;;;4361477;33;20581;-68
2021/10/17 12:32:52;;;;;;;21.73;19.93;;;15.50;99.90;;;;;;4362955;32;20125;-65
2021/10/17 12:35:28;;;;;;;22.93;21.63;;;15.40;99.90;;;;;;4362571;32;20133;-67
2021/10/17 12:37:55;;;;;;;22.43;20.93;;;15.50;99.90;;;;;;4363668;32;20135;-66
2021/10/17 12:40:22;;;;;;;22.23;20.47;;;15.60;99.90;;;;;;4362619;32;20458;-65